Holland, Minnesota
Current Conditions -  °F | °C
As of 6:14 PM on Friday 28 Nov 2014 (Local Time) from KPQN Reporting Station
Clear Clear  
Wind Chill: 21°   Ceiling: Unl
Heat Index: 28°   Visibility: 10mi
Dew Point: 25°   Wind: 7mph
Humidity: 86%   Direction: 130°SE
Pressure: 29.68"   Gusts: NA
Location:  44.09°N, 96.19°W
Report Text: KPQN 290014Z AUTO 13006KT 10SM CLR M02/M04 A2968 RMK AO2
Loading
Personal Weather Stations






























Interactive Weather Map New forecast layout! Learn more

10-Day Weather Forecast

Advertisements
Track Severe Weather on mobile